Weisshorn — V2ER — position and weather

sailwx.info

Track history (hours):
 
Tides and Currents Weather Stations Pressure Air Temp Water Temp Dewpoint Dewpoint Depression Visibility Wind Speed Wind Dir Waves Ship Positions

Weisshorn

Last reported at 2017-Dec-14 16:56 UTC. Time now 2017-Dec-17 17:38 UTC.
Position N 09°28' W 079°50'.

Length 157.1 m; beam 23.5 m; draft 9.3 m.

Type: Ship (hazmat cat A). MMSI: 304010697.

Date/timePositionNaut miles runAvg speedWind from/ knotsBaromVisibWave heightAir tempDewpointWater temp
2017-Dec-14 16:56N 09°28' W 079°50'0 0.0
2017-Dec-14 16:29N 09°28' W 079°50'0 0.0
2017-Dec-14 15:59N 09°28' W 079°50'0 0.0
2017-Dec-14 14:59N 09°28' W 079°50'0 0.0
2017-Dec-14 14:20N 09°28' W 079°50'0 0.0
2017-Dec-14 13:59N 09°28' W 079°50'0 0.1
2017-Dec-14 13:26N 09°28' W 079°50'0 0.0
2017-Dec-14 12:50N 09°28' W 079°50'0 0.0
2017-Dec-14 12:14N 09°28' W 079°50'0 0.0
2017-Dec-14 11:56N 09°28' W 079°50'0 0.0
2017-Dec-14 11:26N 09°28' W 079°50'0 0.1
2017-Dec-14 10:47N 09°28' W 079°50'0 0.9
2017-Dec-14 10:31N 09°28' W 079°50'5 9.9
2017-Dec-14 10:01N 09°25' W 079°54'4 7.1
2017-Dec-14 09:30N 09°22' W 079°53'0 0.1
2017-Dec-14 08:58N 09°22' W 079°53'0 0.0
2017-Dec-14 08:25N 09°22' W 079°53'0 0.0
2017-Dec-14 07:58N 09°22' W 079°53'0 0.0
2017-Dec-14 07:28N 09°22' W 079°53'0 0.0
2017-Dec-14 06:58N 09°22' W 079°53'0 0.0
2017-Dec-14 06:28N 09°22' W 079°53'0 0.0
2017-Dec-14 05:58N 09°22' W 079°53'0 0.0
2017-Dec-14 05:28N 09°22' W 079°53'0 0.0
2017-Dec-14 04:58N 09°22' W 079°53'0 0.0
2017-Dec-14 04:28N 09°22' W 079°53'0 0.0
2017-Dec-14 03:58N 09°22' W 079°53'0 0.0
2017-Dec-14 03:28N 09°22' W 079°53'0 0.0
2017-Dec-14 02:58N 09°22' W 079°53'0 0.0
2017-Dec-14 02:28N 09°22' W 079°53'0 0.0
2017-Dec-14 01:58N 09°22' W 079°53'0 0.0
2017-Dec-14 01:28N 09°22' W 079°53'0 0.0
2017-Dec-14 00:58N 09°22' W 079°53'0 0.0
2017-Dec-14 00:28N 09°22' W 079°53'0 0.0
2017-Dec-13 23:55N 09°22' W 079°53'0 0.0
2017-Dec-13 23:28N 09°22' W 079°53'0 0.0
2017-Dec-13 22:58N 09°22' W 079°53'0 0.0
2017-Dec-13 22:25N 09°22' W 079°53'0 0.0
2017-Dec-13 21:58N 09°22' W 079°53'0 0.0
2017-Dec-13 21:28N 09°22' W 079°53'0 0.0
2017-Dec-13 20:58N 09°22' W 079°53'0 0.0
2017-Dec-13 20:28N 09°22' W 079°53'0 0.1
2017-Dec-13 19:58N 09°22' W 079°53'0 0.0
2017-Dec-13 19:28N 09°22' W 079°53'0 0.0
2017-Dec-13 18:58N 09°22' W 079°53'0 0.0
2017-Dec-13 18:28N 09°22' W 079°53'0 0.0
2017-Dec-13 17:58N 09°22' W 079°53'0 0.0
2017-Dec-13 17:28N 09°22' W 079°53'0 0.0
2017-Dec-13 16:58N 09°22' W 079°53'0 0.0
2017-Dec-13 16:30N 09°22' W 079°53'2 4.7
2017-Dec-13 16:01N 09°24' W 079°54'4 8.9
2017-Dec-13 15:30N 09°28' W 079°52'3 6.2
2017-Dec-13 15:00N 09°29' W 079°49'0 0.1
2017-Dec-13 14:30N 09°29' W 079°49'0 0.0
2017-Dec-13 13:57N 09°29' W 079°49'0 0.0
2017-Dec-13 13:30N 09°29' W 079°49'0 0.0
2017-Dec-13 12:51N 09°29' W 079°49'0 0.0
2017-Dec-13 12:30N 09°29' W 079°49'0 0.0
2017-Dec-13 12:00N 09°29' W 079°49'0 0.0
2017-Dec-13 11:30N 09°29' W 079°49'0 0.0
2017-Dec-13 11:00N 09°29' W 079°49'0 0.1
2017-Dec-13 10:30N 09°29' W 079°49'0 0.0
2017-Dec-13 10:00N 09°29' W 079°49'0 0.0
2017-Dec-13 09:30N 09°29' W 079°49'0 0.0
2017-Dec-13 09:00N 09°29' W 079°49'0 0.0
2017-Dec-13 08:30N 09°29' W 079°49'0 0.0
2017-Dec-13 08:00N 09°29' W 079°49'0 0.0
2017-Dec-13 07:30N 09°29' W 079°49'0 0.0
2017-Dec-13 07:00N 09°29' W 079°49'0 0.0
2017-Dec-13 06:30N 09°29' W 079°49'0 0.0
2017-Dec-13 06:00N 09°29' W 079°49'0 0.0
2017-Dec-13 05:30N 09°29' W 079°49'0 0.0
2017-Dec-13 04:57N 09°29' W 079°49'0 0.0
2017-Dec-13 04:18N 09°29' W 079°49'0 0.0
2017-Dec-13 03:54N 09°29' W 079°49'0 0.0
2017-Dec-13 03:18N 09°29' W 079°49'0 0.0
2017-Dec-13 02:48N 09°29' W 079°49'0 0.0
2017-Dec-13 02:27N 09°29' W 079°49'0 0.1
2017-Dec-13 02:00N 09°29' W 079°49'0 0.6
2017-Dec-13 01:30N 09°29' W 079°49'2 4.0
2017-Dec-13 01:01N 09°30' W 079°50'5 9.6
2017-Dec-13 00:31N 09°31' W 079°55'  
2017-Dec-09 16:20N 25°26' W 079°37'513.8
2017-Dec-09 16:00N 25°31' W 079°38'713.7
2017-Dec-09 15:31N 25°37' W 079°40'611.5
2017-Dec-09 15:00N 25°43' W 079°41'510.9
2017-Dec-09 14:30N 25°48' W 079°44'714.1
2017-Dec-09 14:00N 25°52' W 079°50'714.8
2017-Dec-09 13:31N 25°57' W 079°57'815.5
2017-Dec-09 13:00N 26°03' W 080°02'5 9.8
2017-Dec-09 12:30N 26°06' W 080°06'2 3.4
2017-Dec-09 12:00N 26°04' W 080°07'0 0.0
2017-Dec-09 11:30N 26°04' W 080°07'0 0.0
2017-Dec-09 10:57N 26°04' W 080°07'0 0.0
2017-Dec-09 10:30N 26°04' W 080°07'0 0.0
2017-Dec-09 10:00N 26°04' W 080°07'0 0.0
2017-Dec-09 09:30N 26°04' W 080°07'0 0.0
2017-Dec-09 08:57N 26°04' W 080°07'0 0.0
2017-Dec-09 08:30N 26°04' W 080°07'0 0.0
2017-Dec-09 08:00N 26°04' W 080°07'0 0.0
2017-Dec-09 07:30N 26°04' W 080°07'0 0.0
2017-Dec-09 07:00N 26°04' W 080°07'0 0.0
2017-Dec-09 06:30N 26°04' W 080°07'0 0.0
2017-Dec-09 06:00N 26°04' W 080°07'0 0.0
2017-Dec-09 05:30N 26°04' W 080°07'0 0.0
2017-Dec-09 05:00N 26°04' W 080°07'0 0.0
2017-Dec-09 04:30N 26°04' W 080°07'0 0.0
2017-Dec-09 04:00N 26°04' W 080°07'0 0.0
2017-Dec-09 03:30N 26°04' W 080°07'0 0.0
2017-Dec-09 03:00N 26°04' W 080°07'0 0.0
2017-Dec-09 02:30N 26°04' W 080°07'0 0.0
2017-Dec-09 02:00N 26°04' W 080°07'0 0.0
2017-Dec-09 01:27N 26°04' W 080°07'0 0.0
2017-Dec-09 01:00N 26°04' W 080°07'0 0.0
2017-Dec-09 00:27N 26°04' W 080°07'0 0.0
2017-Dec-09 00:00N 26°04' W 080°07'0 0.0
2017-Dec-08 23:30N 26°04' W 080°07'0 0.0
2017-Dec-08 23:00N 26°04' W 080°07'0 0.0
2017-Dec-08 22:27N 26°04' W 080°07'0 0.0
2017-Dec-08 22:00N 26°04' W 080°07'0 0.0
2017-Dec-08 21:30N 26°04' W 080°07'0 0.0
2017-Dec-08 20:57N 26°04' W 080°07'0 0.0
2017-Dec-08 20:30N 26°04' W 080°07'0 0.0
2017-Dec-08 19:57N 26°04' W 080°07'0 0.0
2017-Dec-08 19:30N 26°04' W 080°07'0 0.0
2017-Dec-08 19:00N 26°04' W 080°07'0 0.0
2017-Dec-08 18:30N 26°04' W 080°07'0 0.0
2017-Dec-08 18:00N 26°04' W 080°07'0 0.0
2017-Dec-08 17:30N 26°04' W 080°07'0 0.5
2017-Dec-08 17:00N 26°04' W 080°07'2 3.1
2017-Dec-08 16:30N 26°06' W 080°06'4 7.2
2017-Dec-08 16:00N 26°06' W 080°02'0 0.3
2017-Dec-08 15:30N 26°06' W 080°02'0 0.4
2017-Dec-08 15:00N 26°06' W 080°02'0 0.4
2017-Dec-08 14:30N 26°06' W 080°02'2 3.4
2017-Dec-08 14:00N 26°07' W 080°03'1 1.9
2017-Dec-08 13:28N 26°08' W 080°04'0 0.1
2017-Dec-08 12:58N 26°08' W 080°04'0 0.0
2017-Dec-08 12:28N 26°08' W 080°04'0 0.0
2017-Dec-08 11:58N 26°08' W 080°04'0 0.0
2017-Dec-08 11:28N 26°08' W 080°04'0 0.0
2017-Dec-08 10:58N 26°08' W 080°04'0 0.0
2017-Dec-08 10:28N 26°08' W 080°04'0 0.0
2017-Dec-08 09:58N 26°08' W 080°04'0 0.0
2017-Dec-08 09:16N 26°08' W 080°04'0 0.0
2017-Dec-08 08:58N 26°08' W 080°04'0 0.0
2017-Dec-08 08:28N 26°08' W 080°04'0 0.0
2017-Dec-08 07:58N 26°08' W 080°04'0 0.0
2017-Dec-08 07:19N 26°08' W 080°04'0 0.0
2017-Dec-08 06:55N 26°08' W 080°04'0 0.0
2017-Dec-08 06:28N 26°08' W 080°04'0 0.0
2017-Dec-08 05:52N 26°08' W 080°04'0 0.0
2017-Dec-08 05:22N 26°08' W 080°04'0 0.0
2017-Dec-08 04:52N 26°08' W 080°04'0 0.0
2017-Dec-08 04:22N 26°08' W 080°04'0 0.0
2017-Dec-08 03:52N 26°08' W 080°04'0 0.0
2017-Dec-08 03:25N 26°08' W 080°04'0 0.0
2017-Dec-08 02:55N 26°08' W 080°04'0 0.0
2017-Dec-08 02:25N 26°08' W 080°04'0 0.0
2017-Dec-08 01:55N 26°08' W 080°04'0 0.0
2017-Dec-08 01:25N 26°08' W 080°04'0 0.0
2017-Dec-08 00:55N 26°08' W 080°04'0 0.0
2017-Dec-08 00:25N 26°08' W 080°04'0 0.0
2017-Dec-07 23:58N 26°08' W 080°04'0 0.2
2017-Dec-07 23:30N 26°08' W 080°04'713.5
2017-Dec-07 23:00N 26°14' W 080°01'816.2
2017-Dec-07 22:30N 26°22' W 079°59'815.4
2017-Dec-07 22:00N 26°30' W 079°59'814.5
2017-Dec-07 21:28N 26°37' W 079°59'714.6
2017-Dec-07 21:00N 26°44' W 079°58'714.1
2017-Dec-07 20:31N 26°51' W 079°58'713.5
2017-Dec-07 20:01N 26°58' W 079°58'713.6
2017-Dec-07 19:31N 27°05' W 079°58'  
Track history (hours):
 
Tides and Currents Weather Stations Pressure Air Temp Water Temp Dewpoint Dewpoint Depression Visibility Wind Speed Wind Dir Waves Ship Positions

Weisshorn

Last reported at 2017-Dec-14 16:56 UTC. Time now 2017-Dec-17 17:38 UTC.
Position N 09°28' W 079°50'.

Length 157.1 m; beam 23.5 m; draft 9.3 m.

Type: Ship (hazmat cat A). MMSI: 304010697.

Date/timePositionNaut miles runAvg speedWind from/ knotsBaromVisibWave heightAir tempDewpointWater temp
2017-Dec-14 16:56N 09°28' W 079°50'0 0.0
2017-Dec-14 16:29N 09°28' W 079°50'0 0.0
2017-Dec-14 15:59N 09°28' W 079°50'0 0.0
2017-Dec-14 14:59N 09°28' W 079°50'0 0.0
2017-Dec-14 14:20N 09°28' W 079°50'0 0.0
2017-Dec-14 13:59N 09°28' W 079°50'0 0.1
2017-Dec-14 13:26N 09°28' W 079°50'0 0.0
2017-Dec-14 12:50N 09°28' W 079°50'0 0.0
2017-Dec-14 12:14N 09°28' W 079°50'0 0.0
2017-Dec-14 11:56N 09°28' W 079°50'0 0.0
2017-Dec-14 11:26N 09°28' W 079°50'0 0.1
2017-Dec-14 10:47N 09°28' W 079°50'0 0.9
2017-Dec-14 10:31N 09°28' W 079°50'5 9.9
2017-Dec-14 10:01N 09°25' W 079°54'4 7.1
2017-Dec-14 09:30N 09°22' W 079°53'0 0.1
2017-Dec-14 08:58N 09°22' W 079°53'0 0.0
2017-Dec-14 08:25N 09°22' W 079°53'0 0.0
2017-Dec-14 07:58N 09°22' W 079°53'0 0.0
2017-Dec-14 07:28N 09°22' W 079°53'0 0.0
2017-Dec-14 06:58N 09°22' W 079°53'0 0.0
2017-Dec-14 06:28N 09°22' W 079°53'0 0.0
2017-Dec-14 05:58N 09°22' W 079°53'0 0.0
2017-Dec-14 05:28N 09°22' W 079°53'0 0.0
2017-Dec-14 04:58N 09°22' W 079°53'0 0.0
2017-Dec-14 04:28N 09°22' W 079°53'0 0.0
2017-Dec-14 03:58N 09°22' W 079°53'0 0.0
2017-Dec-14 03:28N 09°22' W 079°53'0 0.0
2017-Dec-14 02:58N 09°22' W 079°53'0 0.0
2017-Dec-14 02:28N 09°22' W 079°53'0 0.0
2017-Dec-14 01:58N 09°22' W 079°53'0 0.0
2017-Dec-14 01:28N 09°22' W 079°53'0 0.0
2017-Dec-14 00:58N 09°22' W 079°53'0 0.0
2017-Dec-14 00:28N 09°22' W 079°53'0 0.0
2017-Dec-13 23:55N 09°22' W 079°53'0 0.0
2017-Dec-13 23:28N 09°22' W 079°53'0 0.0
2017-Dec-13 22:58N 09°22' W 079°53'0 0.0
2017-Dec-13 22:25N 09°22' W 079°53'0 0.0
2017-Dec-13 21:58N 09°22' W 079°53'0 0.0
2017-Dec-13 21:28N 09°22' W 079°53'0 0.0
2017-Dec-13 20:58N 09°22' W 079°53'0 0.0
2017-Dec-13 20:28N 09°22' W 079°53'0 0.1
2017-Dec-13 19:58N 09°22' W 079°53'0 0.0
2017-Dec-13 19:28N 09°22' W 079°53'0 0.0
2017-Dec-13 18:58N 09°22' W 079°53'0 0.0
2017-Dec-13 18:28N 09°22' W 079°53'0 0.0
2017-Dec-13 17:58N 09°22' W 079°53'0 0.0
2017-Dec-13 17:28N 09°22' W 079°53'0 0.0
2017-Dec-13 16:58N 09°22' W 079°53'0 0.0
2017-Dec-13 16:30N 09°22' W 079°53'2 4.7
2017-Dec-13 16:01N 09°24' W 079°54'4 8.9
2017-Dec-13 15:30N 09°28' W 079°52'3 6.2
2017-Dec-13 15:00N 09°29' W 079°49'0 0.1
2017-Dec-13 14:30N 09°29' W 079°49'0 0.0
2017-Dec-13 13:57N 09°29' W 079°49'0 0.0
2017-Dec-13 13:30N 09°29' W 079°49'0 0.0
2017-Dec-13 12:51N 09°29' W 079°49'0 0.0
2017-Dec-13 12:30N 09°29' W 079°49'0 0.0
2017-Dec-13 12:00N 09°29' W 079°49'0 0.0
2017-Dec-13 11:30N 09°29' W 079°49'0 0.0
2017-Dec-13 11:00N 09°29' W 079°49'0 0.1
2017-Dec-13 10:30N 09°29' W 079°49'0 0.0
2017-Dec-13 10:00N 09°29' W 079°49'0 0.0
2017-Dec-13 09:30N 09°29' W 079°49'0 0.0
2017-Dec-13 09:00N 09°29' W 079°49'0 0.0
2017-Dec-13 08:30N 09°29' W 079°49'0 0.0
2017-Dec-13 08:00N 09°29' W 079°49'0 0.0
2017-Dec-13 07:30N 09°29' W 079°49'0 0.0
2017-Dec-13 07:00N 09°29' W 079°49'0 0.0
2017-Dec-13 06:30N 09°29' W 079°49'0 0.0
2017-Dec-13 06:00N 09°29' W 079°49'0 0.0
2017-Dec-13 05:30N 09°29' W 079°49'0 0.0
2017-Dec-13 04:57N 09°29' W 079°49'0 0.0
2017-Dec-13 04:18N 09°29' W 079°49'0 0.0
2017-Dec-13 03:54N 09°29' W 079°49'0 0.0
2017-Dec-13 03:18N 09°29' W 079°49'0 0.0
2017-Dec-13 02:48N 09°29' W 079°49'0 0.0
2017-Dec-13 02:27N 09°29' W 079°49'0 0.1
2017-Dec-13 02:00N 09°29' W 079°49'0 0.6
2017-Dec-13 01:30N 09°29' W 079°49'2 4.0
2017-Dec-13 01:01N 09°30' W 079°50'5 9.6
2017-Dec-13 00:31N 09°31' W 079°55'  
2017-Dec-09 16:20N 25°26' W 079°37'513.8
2017-Dec-09 16:00N 25°31' W 079°38'713.7
2017-Dec-09 15:31N 25°37' W 079°40'611.5
2017-Dec-09 15:00N 25°43' W 079°41'510.9
2017-Dec-09 14:30N 25°48' W 079°44'714.1
2017-Dec-09 14:00N 25°52' W 079°50'714.8
2017-Dec-09 13:31N 25°57' W 079°57'815.5
2017-Dec-09 13:00N 26°03' W 080°02'5 9.8
2017-Dec-09 12:30N 26°06' W 080°06'2 3.4
2017-Dec-09 12:00N 26°04' W 080°07'0 0.0
2017-Dec-09 11:30N 26°04' W 080°07'0 0.0
2017-Dec-09 10:57N 26°04' W 080°07'0 0.0
2017-Dec-09 10:30N 26°04' W 080°07'0 0.0
2017-Dec-09 10:00N 26°04' W 080°07'0 0.0
2017-Dec-09 09:30N 26°04' W 080°07'0 0.0
2017-Dec-09 08:57N 26°04' W 080°07'0 0.0
2017-Dec-09 08:30N 26°04' W 080°07'0 0.0
2017-Dec-09 08:00N 26°04' W 080°07'0 0.0
2017-Dec-09 07:30N 26°04' W 080°07'0 0.0
2017-Dec-09 07:00N 26°04' W 080°07'0 0.0
2017-Dec-09 06:30N 26°04' W 080°07'0 0.0
2017-Dec-09 06:00N 26°04' W 080°07'0 0.0
2017-Dec-09 05:30N 26°04' W 080°07'0 0.0
2017-Dec-09 05:00N 26°04' W 080°07'0 0.0
2017-Dec-09 04:30N 26°04' W 080°07'0 0.0
2017-Dec-09 04:00N 26°04' W 080°07'0 0.0
2017-Dec-09 03:30N 26°04' W 080°07'0 0.0
2017-Dec-09 03:00N 26°04' W 080°07'0 0.0
2017-Dec-09 02:30N 26°04' W 080°07'0 0.0
2017-Dec-09 02:00N 26°04' W 080°07'0 0.0
2017-Dec-09 01:27N 26°04' W 080°07'0 0.0
2017-Dec-09 01:00N 26°04' W 080°07'0 0.0
2017-Dec-09 00:27N 26°04' W 080°07'0 0.0
2017-Dec-09 00:00N 26°04' W 080°07'0 0.0
2017-Dec-08 23:30N 26°04' W 080°07'0 0.0
2017-Dec-08 23:00N 26°04' W 080°07'0 0.0
2017-Dec-08 22:27N 26°04' W 080°07'0 0.0
2017-Dec-08 22:00N 26°04' W 080°07'0 0.0
2017-Dec-08 21:30N 26°04' W 080°07'0 0.0
2017-Dec-08 20:57N 26°04' W 080°07'0 0.0
2017-Dec-08 20:30N 26°04' W 080°07'0 0.0
2017-Dec-08 19:57N 26°04' W 080°07'0 0.0
2017-Dec-08 19:30N 26°04' W 080°07'0 0.0
2017-Dec-08 19:00N 26°04' W 080°07'0 0.0
2017-Dec-08 18:30N 26°04' W 080°07'0 0.0
2017-Dec-08 18:00N 26°04' W 080°07'0 0.0
2017-Dec-08 17:30N 26°04' W 080°07'0 0.5
2017-Dec-08 17:00N 26°04' W 080°07'2 3.1
2017-Dec-08 16:30N 26°06' W 080°06'4 7.2
2017-Dec-08 16:00N 26°06' W 080°02'0 0.3
2017-Dec-08 15:30N 26°06' W 080°02'0 0.4
2017-Dec-08 15:00N 26°06' W 080°02'0 0.4
2017-Dec-08 14:30N 26°06' W 080°02'2 3.4
2017-Dec-08 14:00N 26°07' W 080°03'1 1.9
2017-Dec-08 13:28N 26°08' W 080°04'0 0.1
2017-Dec-08 12:58N 26°08' W 080°04'0 0.0
2017-Dec-08 12:28N 26°08' W 080°04'0 0.0
2017-Dec-08 11:58N 26°08' W 080°04'0 0.0
2017-Dec-08 11:28N 26°08' W 080°04'0 0.0
2017-Dec-08 10:58N 26°08' W 080°04'0 0.0
2017-Dec-08 10:28N 26°08' W 080°04'0 0.0
2017-Dec-08 09:58N 26°08' W 080°04'0 0.0
2017-Dec-08 09:16N 26°08' W 080°04'0 0.0
2017-Dec-08 08:58N 26°08' W 080°04'0 0.0
2017-Dec-08 08:28N 26°08' W 080°04'0 0.0
2017-Dec-08 07:58N 26°08' W 080°04'0 0.0
2017-Dec-08 07:19N 26°08' W 080°04'0 0.0
2017-Dec-08 06:55N 26°08' W 080°04'0 0.0
2017-Dec-08 06:28N 26°08' W 080°04'0 0.0
2017-Dec-08 05:52N 26°08' W 080°04'0 0.0
2017-Dec-08 05:22N 26°08' W 080°04'0 0.0
2017-Dec-08 04:52N 26°08' W 080°04'0 0.0
2017-Dec-08 04:22N 26°08' W 080°04'0 0.0
2017-Dec-08 03:52N 26°08' W 080°04'0 0.0
2017-Dec-08 03:25N 26°08' W 080°04'0 0.0
2017-Dec-08 02:55N 26°08' W 080°04'0 0.0
2017-Dec-08 02:25N 26°08' W 080°04'0 0.0
2017-Dec-08 01:55N 26°08' W 080°04'0 0.0
2017-Dec-08 01:25N 26°08' W 080°04'0 0.0
2017-Dec-08 00:55N 26°08' W 080°04'0 0.0
2017-Dec-08 00:25N 26°08' W 080°04'0 0.0
2017-Dec-07 23:58N 26°08' W 080°04'0 0.2
2017-Dec-07 23:30N 26°08' W 080°04'713.5
2017-Dec-07 23:00N 26°14' W 080°01'816.2
2017-Dec-07 22:30N 26°22' W 079°59'815.4
2017-Dec-07 22:00N 26°30' W 079°59'814.5
2017-Dec-07 21:28N 26°37' W 079°59'714.6
2017-Dec-07 21:00N 26°44' W 079°58'714.1
2017-Dec-07 20:31N 26°51' W 079°58'713.5
2017-Dec-07 20:01N 26°58' W 079°58'713.6
2017-Dec-07 19:31N 27°05' W 079°58'  

Dump ship's entire track history